Time,TemperatureF,DewpointF,PressureIn,WindDirection,WindDirectionDegrees,WindSpeedMPH,WindSpeedGustMPH,Humidity,HourlyPrecipIn,Conditions,Clouds,dailyrainin,SoftwareType,DateUTC
2015-05-06 00:01:00,69.6,68.7,26.52,North,0,2.0,-999.0,97,-99.99,,,0.00,meteohub,2015-05-06 04:01:00,
2015-05-06 00:06:00,69.6,68.7,26.53,North,0,2.0,-999.0,97,-99.99,,,0.00,meteohub,2015-05-06 04:06:00,
2015-05-06 00:11:00,69.8,69.3,26.52,North,0,3.0,-999.0,98,-99.99,,,0.00,meteohub,2015-05-06 04:11:00,
2015-05-06 00:16:00,70.0,69.6,26.53,North,0,3.0,-999.0,99,-99.99,,,0.00,meteohub,2015-05-06 04:16:00,
2015-05-06 00:21:00,70.0,69.6,26.52,North,0,1.0,-999.0,99,-99.99,,,0.00,meteohub,2015-05-06 04:21:00,
2015-05-06 00:26:00,69.8,69.4,26.52,North,0,3.0,-999.0,99,-99.99,,,0.00,meteohub,2015-05-06 04:26:00,
2015-05-06 00:31:00,70.0,69.6,26.52,North,0,1.0,-999.0,99,-99.99,,,0.00,meteohub,2015-05-06 04:31:00,
2015-05-06 00:36:00,69.8,69.4,26.52,North,0,2.0,-999.0,99,-99.99,,,0.00,meteohub,2015-05-06 04:36:00,
2015-05-06 00:41:00,69.8,69.4,26.51,North,0,3.0,-999.0,99,-99.99,,,0.00,meteohub,2015-05-06 04:41:00,
2015-05-06 00:46:00,69.8,69.4,26.51,North,0,1.0,-999.0,99,-99.99,,,0.00,meteohub,2015-05-06 04:46:00,
2015-05-06 00:51:00,69.8,69.4,26.51,North,0,2.0,-999.0,99,-99.99,,,0.00,meteohub,2015-05-06 04:51:00,
2015-05-06 00:56:00,69.8,69.4,26.51,North,0,2.0,-999.0,99,-99.99,,,0.00,meteohub,2015-05-06 04:56:00,
2015-05-06 01:01:00,69.8,69.4,26.51,North,0,1.0,-999.0,99,-99.99,,,0.00,meteohub,2015-05-06 05:01:00,
2015-05-06 01:06:00,69.8,69.4,26.51,North,0,1.0,-999.0,99,-99.99,,,0.00,meteohub,2015-05-06 05:06:00,
2015-05-06 01:11:00,69.8,69.4,26.51,North,0,2.0,-999.0,99,-99.99,,,0.00,meteohub,2015-05-06 05:11:00,
2015-05-06 01:16:00,69.8,69.4,26.51,North,0,1.0,-999.0,99,-99.99,,,0.00,meteohub,2015-05-06 05:16:00,
2015-05-06 01:21:00,69.8,69.4,26.51,North,0,3.0,-999.0,99,-99.99,,,0.00,meteohub,2015-05-06 05:21:00,
2015-05-06 01:26:00,69.8,69.4,26.53,North,0,4.0,-999.0,99,-99.99,,,0.00,meteohub,2015-05-06 05:26:00,
2015-05-06 01:31:00,69.8,69.4,26.53,NE,45,8.0,-999.0,99,-99.99,,,0.00,meteohub,2015-05-06 05:31:00,
2015-05-06 01:36:00,69.4,69.1,26.53,NE,45,11.0,-999.0,99,-99.99,,,0.00,meteohub,2015-05-06 05:36:00,
2015-05-06 01:41:00,69.1,68.7,26.53,NE,45,9.0,-999.0,99,-99.99,,,0.00,meteohub,2015-05-06 05:41:00,
2015-05-06 01:46:00,68.9,68.5,26.53,NE,45,8.0,-999.0,99,-99.99,,,0.00,meteohub,2015-05-06 05:46:00,
2015-05-06 01:51:00,68.5,68.2,26.53,NE,45,2.0,-999.0,99,-99.99,,,0.00,meteohub,2015-05-06 05:51:00,
2015-05-06 01:56:00,68.4,68.0,26.52,North,0,2.0,-999.0,99,-99.99,,,0.00,meteohub,2015-05-06 05:56:00,
2015-05-06 02:01:00,68.4,68.0,26.51,West,270,2.0,-999.0,99,-99.99,,,0.00,meteohub,2015-05-06 06:01:00,
2015-05-06 02:06:00,68.4,68.0,26.51,West,270,2.0,-999.0,99,-99.99,,,0.00,meteohub,2015-05-06 06:06:00,
2015-05-06 02:11:00,68.4,68.0,26.51,West,270,1.0,-999.0,99,-99.99,,,0.00,meteohub,2015-05-06 06:11:00,
2015-05-06 02:16:00,68.2,67.8,26.51,West,270,2.0,-999.0,99,-99.99,,,0.00,meteohub,2015-05-06 06:16:00,
2015-05-06 02:21:00,68.0,67.6,26.50,West,270,1.0,-999.0,99,-99.99,,,0.00,meteohub,2015-05-06 06:21:00,
2015-05-06 02:26:00,68.0,67.6,26.50,West,270,1.0,-999.0,99,-99.99,,,0.00,meteohub,2015-05-06 06:26:00,
2015-05-06 02:31:00,68.0,67.6,26.50,West,270,0.0,-999.0,99,-99.99,,,0.00,meteohub,2015-05-06 06:31:00,
2015-05-06 02:36:00,68.2,67.8,26.50,West,270,0.0,-999.0,99,-99.99,,,0.00,meteohub,2015-05-06 06:36:00,
2015-05-06 02:41:00,68.0,67.6,26.50,West,270,0.0,-999.0,99,-99.99,,,0.00,meteohub,2015-05-06 06:41:00,
2015-05-06 02:46:00,68.2,67.8,26.49,West,270,0.0,-999.0,99,-99.99,,,0.00,meteohub,2015-05-06 06:46:00,
2015-05-06 02:51:00,68.0,67.6,26.49,West,270,0.0,-999.0,99,-99.99,,,0.00,meteohub,2015-05-06 06:51:00,
2015-05-06 02:56:00,68.0,67.6,26.48,West,270,0.0,-999.0,99,-99.99,,,0.00,meteohub,2015-05-06 06:56:00,
2015-05-06 03:01:00,68.0,67.6,26.49,West,270,1.0,-999.0,99,-99.99,,,0.00,meteohub,2015-05-06 07:01:00,
2015-05-06 03:06:00,68.0,67.6,26.48,West,270,1.0,-999.0,99,-99.99,,,0.00,meteohub,2015-05-06 07:06:00,
2015-05-06 03:11:00,68.2,67.8,26.48,West,270,0.0,-999.0,99,-99.99,,,0.00,meteohub,2015-05-06 07:11:00,
2015-05-06 03:16:00,68.0,67.6,26.48,West,270,0.0,-999.0,99,-99.99,,,0.00,meteohub,2015-05-06 07:16:00,
2015-05-06 03:21:00,68.0,67.6,26.47,West,270,0.0,-999.0,99,-99.99,,,0.00,meteohub,2015-05-06 07:21:00,
2015-05-06 03:26:00,68.0,67.6,26.48,West,270,0.0,-999.0,99,-99.99,,,0.00,meteohub,2015-05-06 07:26:00,
2015-05-06 03:31:00,68.0,67.6,26.47,West,270,0.0,-999.0,99,-99.99,,,0.00,meteohub,2015-05-06 07:31:00,
2015-05-06 03:36:00,68.0,67.6,26.46,West,270,0.0,-999.0,99,-99.99,,,0.00,meteohub,2015-05-06 07:36:00,
2015-05-06 03:41:00,68.2,67.8,26.46,West,270,0.0,-999.0,99,-99.99,,,0.00,meteohub,2015-05-06 07:41:00,
2015-05-06 03:46:00,68.2,67.8,26.46,West,270,1.0,-999.0,99,-99.99,,,0.00,meteohub,2015-05-06 07:46:00,
2015-05-06 03:51:00,68.2,67.8,26.45,West,270,1.0,-999.0,99,-99.99,,,0.00,meteohub,2015-05-06 07:51:00,
2015-05-06 03:56:00,68.2,67.8,26.45,West,270,2.0,-999.0,99,-99.99,,,0.00,meteohub,2015-05-06 07:56:00,
2015-05-06 04:01:00,68.2,67.8,26.45,West,270,1.0,-999.0,99,-99.99,,,0.00,meteohub,2015-05-06 08:01:00,
2015-05-06 04:06:00,68.4,68.0,26.45,West,270,1.0,-999.0,99,-99.99,,,0.00,meteohub,2015-05-06 08:06:00,
2015-05-06 04:11:00,68.4,68.0,26.45,West,270,1.0,-999.0,99,-99.99,,,0.00,meteohub,2015-05-06 08:11:00,
2015-05-06 04:16:00,68.4,68.0,26.45,West,270,1.0,-999.0,99,-99.99,,,0.00,meteohub,2015-05-06 08:16:00,
2015-05-06 04:21:00,68.5,68.2,26.45,West,270,2.0,-999.0,99,-99.99,,,0.00,meteohub,2015-05-06 08:21:00,
2015-05-06 04:26:00,68.5,68.2,26.45,North,0,1.0,-999.0,99,-99.99,,,0.00,meteohub,2015-05-06 08:26:00,
2015-05-06 04:31:00,68.5,68.2,26.45,NE,45,3.0,-999.0,99,-99.99,,,0.00,meteohub,2015-05-06 08:31:00,
2015-05-06 04:36:00,68.4,68.0,26.45,NE,45,1.0,-999.0,99,-99.99,,,0.00,meteohub,2015-05-06 08:36:00,
2015-05-06 04:41:00,68.4,68.0,26.45,North,0,2.0,-999.0,99,-99.99,,,0.00,meteohub,2015-05-06 08:41:00,
2015-05-06 04:46:00,68.4,68.0,26.45,North,0,0.0,-999.0,99,-99.99,,,0.00,meteohub,2015-05-06 08:46:00,
2015-05-06 04:51:00,68.2,67.8,26.45,North,0,1.0,-999.0,99,-99.99,,,0.00,meteohub,2015-05-06 08:51:00,
2015-05-06 04:56:00,68.2,67.8,26.44,North,0,1.0,-999.0,99,-99.99,,,0.00,meteohub,2015-05-06 08:56:00,
2015-05-06 05:01:00,68.2,67.8,26.45,North,0,1.0,-999.0,99,-99.99,,,0.00,meteohub,2015-05-06 09:01:00,
2015-05-06 05:06:00,68.2,67.8,26.43,North,0,1.0,-999.0,99,-99.99,,,0.00,meteohub,2015-05-06 09:06:00,
2015-05-06 05:11:00,68.0,67.6,26.43,North,0,0.0,-999.0,99,-99.99,,,0.00,meteohub,2015-05-06 09:11:00,
2015-05-06 05:16:00,68.0,67.6,26.43,North,0,0.0,-999.0,99,-99.99,,,0.00,meteohub,2015-05-06 09:16:00,
2015-05-06 05:21:00,68.0,67.6,26.44,North,0,1.0,-999.0,99,-99.99,,,0.00,meteohub,2015-05-06 09:21:00,
2015-05-06 05:26:00,68.2,67.8,26.44,North,0,1.0,-999.0,99,-99.99,,,0.00,meteohub,2015-05-06 09:26:00,
2015-05-06 05:31:00,68.2,67.8,26.44,North,0,1.0,-999.0,99,-99.99,,,0.00,meteohub,2015-05-06 09:31:00,
2015-05-06 05:36:00,68.2,67.8,26.44,North,0,0.0,-999.0,99,-99.99,,,0.00,meteohub,2015-05-06 09:36:00,
2015-05-06 05:41:00,68.2,67.8,26.45,North,0,2.0,-999.0,99,-99.99,,,0.00,meteohub,2015-05-06 09:41:00,
2015-05-06 05:46:00,68.0,67.6,26.45,North,0,1.0,-999.0,99,-99.99,,,0.00,meteohub,2015-05-06 09:46:00,
2015-05-06 05:51:00,68.2,67.8,26.45,North,0,1.0,-999.0,99,-99.99,,,0.00,meteohub,2015-05-06 09:51:00,
2015-05-06 05:56:00,68.2,67.8,26.46,North,0,1.0,-999.0,99,-99.99,,,0.00,meteohub,2015-05-06 09:56:00,
2015-05-06 06:02:00,68.4,68.0,26.45,North,0,1.0,-999.0,99,-99.99,,,0.00,meteohub,2015-05-06 10:02:00,
2015-05-06 06:07:00,68.4,68.0,26.45,North,0,0.0,-999.0,99,-99.99,,,0.00,meteohub,2015-05-06 10:07:00,
2015-05-06 06:12:00,68.4,68.0,26.45,North,0,0.0,-999.0,99,-99.99,,,0.00,meteohub,2015-05-06 10:12:00,
2015-05-06 06:17:00,68.4,68.0,26.46,North,0,2.0,-999.0,99,-99.99,,,0.00,meteohub,2015-05-06 10:17:00,
2015-05-06 06:22:00,68.4,68.0,26.45,North,0,2.0,-999.0,99,-99.99,,,0.00,meteohub,2015-05-06 10:22:00,
2015-05-06 06:27:00,68.5,68.2,26.46,North,0,0.0,-999.0,99,-99.99,,,0.00,meteohub,2015-05-06 10:27:00,
2015-05-06 06:32:00,68.5,68.2,26.46,North,0,0.0,-999.0,99,-99.99,,,0.00,meteohub,2015-05-06 10:32:00,
2015-05-06 06:37:00,68.5,68.2,26.46,North,0,0.0,-999.0,99,-99.99,,,0.00,meteohub,2015-05-06 10:37:00,
2015-05-06 06:42:00,68.7,68.4,26.46,North,0,0.0,-999.0,99,-99.99,,,0.00,meteohub,2015-05-06 10:42:00,
2015-05-06 06:47:00,68.5,68.2,26.46,North,0,2.0,-999.0,99,-99.99,,,0.00,meteohub,2015-05-06 10:47:00,
2015-05-06 06:52:00,68.7,68.4,26.47,North,0,2.0,-999.0,99,-99.99,,,0.00,meteohub,2015-05-06 10:52:00,
2015-05-06 06:57:00,68.9,68.5,26.46,North,0,2.0,-999.0,99,-99.99,,,0.00,meteohub,2015-05-06 10:57:00,
2015-05-06 07:02:00,68.7,68.4,26.46,North,0,1.0,-999.0,99,-99.99,,,0.00,meteohub,2015-05-06 11:02:00,
2015-05-06 07:07:00,68.9,68.5,26.46,North,0,2.0,-999.0,99,-99.99,,,0.00,meteohub,2015-05-06 11:07:00,
2015-05-06 07:12:00,68.9,68.5,26.46,North,0,1.0,-999.0,99,-99.99,,,0.00,meteohub,2015-05-06 11:12:00,
2015-05-06 07:17:00,68.9,68.5,26.46,North,0,2.0,-999.0,99,-99.99,,,0.00,meteohub,2015-05-06 11:17:00,
2015-05-06 07:22:00,68.9,68.5,26.46,North,0,1.0,-999.0,99,-99.99,,,0.00,meteohub,2015-05-06 11:22:00,
2015-05-06 07:27:00,68.9,68.5,26.46,North,0,2.0,-999.0,99,-99.99,,,0.00,meteohub,2015-05-06 11:27:00,
2015-05-06 07:32:00,68.7,68.4,26.46,North,0,2.0,-999.0,99,-99.99,,,0.00,meteohub,2015-05-06 11:32:00,
2015-05-06 07:37:00,68.9,68.5,26.46,North,0,2.0,-999.0,99,-99.99,,,0.00,meteohub,2015-05-06 11:37:00,
2015-05-06 07:42:00,68.9,68.5,26.46,North,0,2.0,-999.0,99,-99.99,,,0.00,meteohub,2015-05-06 11:42:00,
2015-05-06 07:47:00,68.9,68.5,26.46,North,0,1.0,-999.0,99,-99.99,,,0.00,meteohub,2015-05-06 11:47:00,
2015-05-06 07:52:00,68.9,68.5,26.46,North,0,4.0,-999.0,99,-99.99,,,0.00,meteohub,2015-05-06 11:52:00,
2015-05-06 07:57:00,69.1,68.7,26.46,North,0,2.0,-999.0,99,-99.99,,,0.00,meteohub,2015-05-06 11:57:00,
2015-05-06 08:02:00,68.9,68.5,26.46,North,0,2.0,-999.0,99,-99.99,,,0.00,meteohub,2015-05-06 12:02:00,
2015-05-06 08:07:00,69.1,68.7,26.47,North,0,2.0,-999.0,99,-99.99,,,0.00,meteohub,2015-05-06 12:07:00,
2015-05-06 08:12:00,69.1,68.7,26.46,North,0,2.0,-999.0,99,-99.99,,,0.00,meteohub,2015-05-06 12:12:00,
2015-05-06 08:17:00,69.3,68.9,26.46,North,0,2.0,-999.0,99,-99.99,,,0.00,meteohub,2015-05-06 12:17:00,
2015-05-06 08:22:00,69.4,69.1,26.46,North,0,2.0,-999.0,99,-99.99,,,0.00,meteohub,2015-05-06 12:22:00,
2015-05-06 08:27:00,69.3,68.9,26.46,North,0,2.0,-999.0,99,-99.99,,,0.00,meteohub,2015-05-06 12:27:00,
2015-05-06 08:32:00,69.6,69.3,26.47,North,0,2.0,-999.0,99,-99.99,,,0.00,meteohub,2015-05-06 12:32:00,
2015-05-06 08:37:00,70.0,69.6,26.48,North,0,2.0,-999.0,99,-99.99,,,0.00,meteohub,2015-05-06 12:37:00,
2015-05-06 08:43:00,70.0,69.6,26.47,North,0,1.0,-999.0,99,-99.99,,,0.00,meteohub,2015-05-06 12:43:00,
2015-05-06 08:48:00,70.2,69.8,26.47,North,0,1.0,-999.0,99,-99.99,,,0.00,meteohub,2015-05-06 12:48:00,
2015-05-06 08:53:00,70.7,70.3,26.48,North,0,3.0,-999.0,99,-99.99,,,0.00,meteohub,2015-05-06 12:53:00,
2015-05-06 08:58:00,70.7,70.3,26.47,North,0,2.0,-999.0,99,-99.99,,,0.00,meteohub,2015-05-06 12:58:00,
2015-05-06 09:03:00,71.1,70.7,26.47,North,0,4.0,-999.0,99,-99.99,,,0.00,meteohub,2015-05-06 13:03:00,
2015-05-06 09:08:00,71.1,70.7,26.47,North,0,2.0,-999.0,99,-99.99,,,0.00,meteohub,2015-05-06 13:08:00,
2015-05-06 09:13:00,71.1,70.7,26.48,North,0,2.0,-999.0,99,-99.99,,,0.00,meteohub,2015-05-06 13:13:00,
2015-05-06 09:18:00,70.3,70.0,26.48,North,0,4.0,-999.0,99,-99.99,,,0.00,meteohub,2015-05-06 13:18:00,
2015-05-06 09:23:00,69.3,68.9,26.48,North,0,1.0,-999.0,99,-99.99,,,0.00,meteohub,2015-05-06 13:23:00,
2015-05-06 09:28:00,68.4,68.0,26.48,North,0,3.0,-999.0,99,-99.99,,,0.00,meteohub,2015-05-06 13:28:00,
2015-05-06 09:33:00,68.0,67.6,26.48,North,0,2.0,-999.0,99,-99.99,,,0.00,meteohub,2015-05-06 13:33:00,
2015-05-06 09:38:00,68.2,67.8,26.48,North,0,0.0,-999.0,99,-99.99,,,0.00,meteohub,2015-05-06 13:38:00,
2015-05-06 09:43:00,68.5,68.2,26.48,North,0,3.0,-999.0,99,-99.99,,,0.00,meteohub,2015-05-06 13:43:00,